sensor_id;sensor_type;location;lat;lon;timestamp;pressure;altitude;pressure_sealevel;temperature
66170;BMP280;66757;44.024;20.456;2023-02-01T00:01:49;98363.81;;;3.98
66170;BMP280;66757;44.024;20.456;2023-02-01T00:04:14;98360.28;;;3.87
66170;BMP280;66757;44.024;20.456;2023-02-01T00:06:40;98350.59;;;3.88
66170;BMP280;66757;44.024;20.456;2023-02-01T00:09:06;98367.84;;;3.50
66170;BMP280;66757;44.024;20.456;2023-02-01T00:11:31;98364.69;;;3.48
66170;BMP280;66757;44.024;20.456;2023-02-01T00:13:57;98367.75;;;3.79
66170;BMP280;66757;44.024;20.456;2023-02-01T00:16:25;98373.25;;;3.60
66170;BMP280;66757;44.024;20.456;2023-02-01T00:18:55;98380.72;;;3.35
66170;BMP280;66757;44.024;20.456;2023-02-01T00:21:21;98368.41;;;3.19
66170;BMP280;66757;44.024;20.456;2023-02-01T00:23:47;98371.06;;;2.90
66170;BMP280;66757;44.024;20.456;2023-02-01T00:26:37;98377.00;;;3.31
66170;BMP280;66757;44.024;20.456;2023-02-01T00:29:05;98373.66;;;3.35
66170;BMP280;66757;44.024;20.456;2023-02-01T00:31:31;98378.53;;;3.44
66170;BMP280;66757;44.024;20.456;2023-02-01T00:33:57;98387.47;;;3.14
66170;BMP280;66757;44.024;20.456;2023-02-01T00:36:23;98377.72;;;3.60
66170;BMP280;66757;44.024;20.456;2023-02-01T00:38:48;98369.59;;;3.61
66170;BMP280;66757;44.024;20.456;2023-02-01T00:41:17;98369.50;;;3.40
66170;BMP280;66757;44.024;20.456;2023-02-01T00:43:43;98371.25;;;3.34
66170;BMP280;66757;44.024;20.456;2023-02-01T00:46:10;98373.56;;;3.64
66170;BMP280;66757;44.024;20.456;2023-02-01T00:48:36;98374.38;;;3.48
66170;BMP280;66757;44.024;20.456;2023-02-01T00:51:04;98371.81;;;3.69
66170;BMP280;66757;44.024;20.456;2023-02-01T00:53:30;98368.41;;;3.52
66170;BMP280;66757;44.024;20.456;2023-02-01T00:55:56;98370.94;;;3.64
66170;BMP280;66757;44.024;20.456;2023-02-01T00:58:23;98371.44;;;3.61
66170;BMP280;66757;44.024;20.456;2023-02-01T01:03:31;98363.88;;;3.64
66170;BMP280;66757;44.024;20.456;2023-02-01T01:06:03;98357.97;;;3.74
66170;BMP280;66757;44.024;20.456;2023-02-01T01:08:29;98351.53;;;3.82
66170;BMP280;66757;44.024;20.456;2023-02-01T01:10:55;98345.97;;;3.78
66170;BMP280;66757;44.024;20.456;2023-02-01T01:13:21;98348.22;;;3.69
66170;BMP280;66757;44.024;20.456;2023-02-01T01:15:46;98344.97;;;3.62
66170;BMP280;66757;44.024;20.456;2023-02-01T01:18:12;98343.03;;;3.75
66170;BMP280;66757;44.024;20.456;2023-02-01T01:20:39;98339.16;;;3.60
66170;BMP280;66757;44.024;20.456;2023-02-01T01:23:05;98331.91;;;3.67
66170;BMP280;66757;44.024;20.456;2023-02-01T01:25:31;98341.41;;;3.18
66170;BMP280;66757;44.024;20.456;2023-02-01T01:27:57;98340.19;;;3.09
66170;BMP280;66757;44.024;20.456;2023-02-01T01:30:23;98334.25;;;3.14
66170;BMP280;66757;44.024;20.456;2023-02-01T01:32:49;98338.47;;;3.48
66170;BMP280;66757;44.024;20.456;2023-02-01T01:35:15;98332.84;;;3.23
66170;BMP280;66757;44.024;20.456;2023-02-01T01:37:40;98324.84;;;3.68
66170;BMP280;66757;44.024;20.456;2023-02-01T01:40:07;98324.75;;;3.80
66170;BMP280;66757;44.024;20.456;2023-02-01T01:42:40;98325.97;;;3.72
66170;BMP280;66757;44.024;20.456;2023-02-01T01:47:48;98307.06;;;3.53
66170;BMP280;66757;44.024;20.456;2023-02-01T01:50:17;98302.00;;;3.47
66170;BMP280;66757;44.024;20.456;2023-02-01T01:52:46;98309.78;;;3.42
66170;BMP280;66757;44.024;20.456;2023-02-01T01:55:16;98299.22;;;3.36
66170;BMP280;66757;44.024;20.456;2023-02-01T01:57:48;98286.63;;;3.55
66170;BMP280;66757;44.024;20.456;2023-02-01T02:00:17;98285.06;;;3.37
66170;BMP280;66757;44.024;20.456;2023-02-01T02:02:44;98281.63;;;3.15
66170;BMP280;66757;44.024;20.456;2023-02-01T02:05:12;98275.09;;;2.84
66170;BMP280;66757;44.024;20.456;2023-02-01T02:07:40;98283.63;;;2.96
66170;BMP280;66757;44.024;20.456;2023-02-01T02:10:09;98272.38;;;3.46
66170;BMP280;66757;44.024;20.456;2023-02-01T02:12:39;98269.00;;;3.51
66170;BMP280;66757;44.024;20.456;2023-02-01T02:15:06;98271.09;;;3.49
66170;BMP280;66757;44.024;20.456;2023-02-01T02:20:45;98269.38;;;3.04
66170;BMP280;66757;44.024;20.456;2023-02-01T02:34:18;98279.34;;;3.41
66170;BMP280;66757;44.024;20.456;2023-02-01T02:45:20;98277.41;;;3.69
66170;BMP280;66757;44.024;20.456;2023-02-01T02:48:35;98282.03;;;3.62
66170;BMP280;66757;44.024;20.456;2023-02-01T02:54:12;98278.13;;;3.65
66170;BMP280;66757;44.024;20.456;2023-02-01T02:56:58;98278.69;;;3.67
66170;BMP280;66757;44.024;20.456;2023-02-01T02:59:44;98272.97;;;3.53
66170;BMP280;66757;44.024;20.456;2023-02-01T03:02:29;98275.91;;;3.18
66170;BMP280;66757;44.024;20.456;2023-02-01T03:05:14;98277.31;;;3.09
66170;BMP280;66757;44.024;20.456;2023-02-01T03:10:35;98280.34;;;3.18
66170;BMP280;66757;44.024;20.456;2023-02-01T03:15:40;98280.06;;;3.36
66170;BMP280;66757;44.024;20.456;2023-02-01T03:18:14;98290.09;;;3.05
66170;BMP280;66757;44.024;20.456;2023-02-01T03:20:45;98288.50;;;3.04
66170;BMP280;66757;44.024;20.456;2023-02-01T03:23:13;98287.22;;;3.24
66170;BMP280;66757;44.024;20.456;2023-02-01T03:25:42;98293.53;;;3.23
66170;BMP280;66757;44.024;20.456;2023-02-01T03:28:09;98280.59;;;3.55
66170;BMP280;66757;44.024;20.456;2023-02-01T03:30:42;98287.66;;;3.54
66170;BMP280;66757;44.024;20.456;2023-02-01T03:33:12;98283.56;;;3.58
66170;BMP280;66757;44.024;20.456;2023-02-01T03:44:41;98279.66;;;3.61
66170;BMP280;66757;44.024;20.456;2023-02-01T03:47:20;98277.91;;;3.50
66170;BMP280;66757;44.024;20.456;2023-02-01T03:49:50;98277.75;;;3.40
66170;BMP280;66757;44.024;20.456;2023-02-01T03:52:32;98276.69;;;3.19
66170;BMP280;66757;44.024;20.456;2023-02-01T03:55:00;98284.13;;;2.93
66170;BMP280;66757;44.024;20.456;2023-02-01T03:57:30;98284.19;;;2.82
66170;BMP280;66757;44.024;20.456;2023-02-01T04:00:37;98282.47;;;2.87
66170;BMP280;66757;44.024;20.456;2023-02-01T04:02:55;98288.75;;;3.20
66170;BMP280;66757;44.024;20.456;2023-02-01T04:05:21;98300.19;;;3.14
66170;BMP280;66757;44.024;20.456;2023-02-01T04:07:47;98307.66;;;3.22
66170;BMP280;66757;44.024;20.456;2023-02-01T04:10:13;98301.81;;;3.53
66170;BMP280;66757;44.024;20.456;2023-02-01T04:12:39;98285.25;;;3.48
66170;BMP280;66757;44.024;20.456;2023-02-01T04:15:05;98275.31;;;3.33
66170;BMP280;66757;44.024;20.456;2023-02-01T04:17:30;98271.84;;;3.27
66170;BMP280;66757;44.024;20.456;2023-02-01T04:19:56;98279.06;;;2.87
66170;BMP280;66757;44.024;20.456;2023-02-01T04:22:23;98273.34;;;2.90
66170;BMP280;66757;44.024;20.456;2023-02-01T04:24:48;98273.03;;;3.20
66170;BMP280;66757;44.024;20.456;2023-02-01T04:27:14;98262.84;;;3.06
66170;BMP280;66757;44.024;20.456;2023-02-01T04:29:40;98270.09;;;3.16
66170;BMP280;66757;44.024;20.456;2023-02-01T04:32:06;98276.44;;;3.03
66170;BMP280;66757;44.024;20.456;2023-02-01T04:34:32;98272.34;;;2.96
66170;BMP280;66757;44.024;20.456;2023-02-01T04:36:57;98274.44;;;2.49
66170;BMP280;66757;44.024;20.456;2023-02-01T04:39:23;98274.91;;;2.46
66170;BMP280;66757;44.024;20.456;2023-02-01T04:41:48;98266.56;;;2.77
66170;BMP280;66757;44.024;20.456;2023-02-01T04:44:16;98268.25;;;2.83
66170;BMP280;66757;44.024;20.456;2023-02-01T04:46:42;98262.81;;;2.56
66170;BMP280;66757;44.024;20.456;2023-02-01T04:49:13;98262.31;;;2.42
66170;BMP280;66757;44.024;20.456;2023-02-01T04:51:39;98272.53;;;2.44
66170;BMP280;66757;44.024;20.456;2023-02-01T04:54:05;98278.34;;;2.34
66170;BMP280;66757;44.024;20.456;2023-02-01T04:56:31;98282.41;;;2.54
66170;BMP280;66757;44.024;20.456;2023-02-01T04:58:57;98278.31;;;2.46
66170;BMP280;66757;44.024;20.456;2023-02-01T05:01:23;98272.78;;;2.88
66170;BMP280;66757;44.024;20.456;2023-02-01T05:03:50;98283.97;;;3.00
66170;BMP280;66757;44.024;20.456;2023-02-01T05:06:15;98283.50;;;2.86
66170;BMP280;66757;44.024;20.456;2023-02-01T05:08:41;98295.06;;;2.73
66170;BMP280;66757;44.024;20.456;2023-02-01T05:11:06;98301.72;;;2.53
66170;BMP280;66757;44.024;20.456;2023-02-01T05:13:52;98301.34;;;2.89
66170;BMP280;66757;44.024;20.456;2023-02-01T05:16:17;98299.06;;;3.10
66170;BMP280;66757;44.024;20.456;2023-02-01T05:18:43;98305.59;;;2.79
66170;BMP280;66757;44.024;20.456;2023-02-01T05:21:08;98304.06;;;3.11
66170;BMP280;66757;44.024;20.456;2023-02-01T05:23:33;98300.53;;;2.72
66170;BMP280;66757;44.024;20.456;2023-02-01T05:26:19;98306.16;;;2.64
66170;BMP280;66757;44.024;20.456;2023-02-01T05:28:45;98314.50;;;2.78
66170;BMP280;66757;44.024;20.456;2023-02-01T05:31:11;98312.88;;;2.88
66170;BMP280;66757;44.024;20.456;2023-02-01T05:33:37;98317.16;;;2.94
66170;BMP280;66757;44.024;20.456;2023-02-01T05:36:02;98315.13;;;2.68
66170;BMP280;66757;44.024;20.456;2023-02-01T05:38:28;98317.00;;;2.84
66170;BMP280;66757;44.024;20.456;2023-02-01T05:40:55;98326.22;;;2.58
66170;BMP280;66757;44.024;20.456;2023-02-01T05:43:21;98318.59;;;2.85
66170;BMP280;66757;44.024;20.456;2023-02-01T05:45:47;98323.97;;;2.67
66170;BMP280;66757;44.024;20.456;2023-02-01T05:48:12;98322.50;;;2.71
66170;BMP280;66757;44.024;20.456;2023-02-01T05:50:38;98325.97;;;2.60
66170;BMP280;66757;44.024;20.456;2023-02-01T05:53:03;98328.38;;;2.50
66170;BMP280;66757;44.024;20.456;2023-02-01T05:55:29;98320.34;;;2.39
66170;BMP280;66757;44.024;20.456;2023-02-01T05:57:54;98323.06;;;2.44
66170;BMP280;66757;44.024;20.456;2023-02-01T06:00:20;98339.69;;;2.67
66170;BMP280;66757;44.024;20.456;2023-02-01T06:02:46;98320.78;;;2.65
66170;BMP280;66757;44.024;20.456;2023-02-01T06:05:11;98329.09;;;2.45
66170;BMP280;66757;44.024;20.456;2023-02-01T06:07:37;98334.09;;;2.35
66170;BMP280;66757;44.024;20.456;2023-02-01T06:10:02;98325.53;;;2.51
66170;BMP280;66757;44.024;20.456;2023-02-01T06:12:28;98326.09;;;2.25
66170;BMP280;66757;44.024;20.456;2023-02-01T06:14:53;98325.47;;;2.34
66170;BMP280;66757;44.024;20.456;2023-02-01T06:17:19;98334.44;;;2.67
66170;BMP280;66757;44.024;20.456;2023-02-01T06:19:44;98339.88;;;2.49
66170;BMP280;66757;44.024;20.456;2023-02-01T06:22:10;98345.16;;;2.65
66170;BMP280;66757;44.024;20.456;2023-02-01T06:24:35;98336.47;;;2.77
66170;BMP280;66757;44.024;20.456;2023-02-01T06:27:01;98345.56;;;2.57
66170;BMP280;66757;44.024;20.456;2023-02-01T06:29:26;98354.69;;;2.83
66170;BMP280;66757;44.024;20.456;2023-02-01T06:31:52;98361.75;;;2.83
66170;BMP280;66757;44.024;20.456;2023-02-01T06:34:17;98359.22;;;2.88
66170;BMP280;66757;44.024;20.456;2023-02-01T06:36:43;98369.75;;;2.64
66170;BMP280;66757;44.024;20.456;2023-02-01T06:39:08;98370.63;;;2.82
66170;BMP280;66757;44.024;20.456;2023-02-01T06:41:34;98372.25;;;2.99
66170;BMP280;66757;44.024;20.456;2023-02-01T06:44:00;98376.84;;;2.92
66170;BMP280;66757;44.024;20.456;2023-02-01T06:46:25;98375.91;;;2.98
66170;BMP280;66757;44.024;20.456;2023-02-01T06:48:51;98373.13;;;3.05
66170;BMP280;66757;44.024;20.456;2023-02-01T06:51:22;98369.53;;;2.94
66170;BMP280;66757;44.024;20.456;2023-02-01T06:53:47;98372.09;;;3.06
66170;BMP280;66757;44.024;20.456;2023-02-01T06:56:13;98373.81;;;3.29
66170;BMP280;66757;44.024;20.456;2023-02-01T06:58:38;98373.41;;;3.54
66170;BMP280;66757;44.024;20.456;2023-02-01T07:01:06;98384.53;;;3.27
66170;BMP280;66757;44.024;20.456;2023-02-01T07:03:33;98383.34;;;3.35
66170;BMP280;66757;44.024;20.456;2023-02-01T07:05:58;98379.38;;;3.16
66170;BMP280;66757;44.024;20.456;2023-02-01T07:08:26;98378.22;;;3.12
66170;BMP280;66757;44.024;20.456;2023-02-01T07:10:52;98405.16;;;2.67
66170;BMP280;66757;44.024;20.456;2023-02-01T07:13:17;98399.53;;;2.87
66170;BMP280;66757;44.024;20.456;2023-02-01T07:15:43;98400.66;;;3.19
66170;BMP280;66757;44.024;20.456;2023-02-01T07:18:08;98408.22;;;3.04
66170;BMP280;66757;44.024;20.456;2023-02-01T07:20:34;98416.53;;;3.13
66170;BMP280;66757;44.024;20.456;2023-02-01T07:22:59;98418.53;;;3.39
66170;BMP280;66757;44.024;20.456;2023-02-01T07:25:25;98412.38;;;3.45
66170;BMP280;66757;44.024;20.456;2023-02-01T07:27:50;98408.38;;;3.59
66170;BMP280;66757;44.024;20.456;2023-02-01T07:30:16;98409.88;;;3.89
66170;BMP280;66757;44.024;20.456;2023-02-01T07:32:41;98423.94;;;3.83
66170;BMP280;66757;44.024;20.456;2023-02-01T07:35:07;98430.38;;;3.75
66170;BMP280;66757;44.024;20.456;2023-02-01T07:37:32;98426.09;;;4.24
66170;BMP280;66757;44.024;20.456;2023-02-01T07:39:58;98419.53;;;4.44
66170;BMP280;66757;44.024;20.456;2023-02-01T07:42:24;98414.59;;;4.47
66170;BMP280;66757;44.024;20.456;2023-02-01T07:44:50;98409.88;;;4.71
66170;BMP280;66757;44.024;20.456;2023-02-01T07:47:15;98414.75;;;4.84
66170;BMP280;66757;44.024;20.456;2023-02-01T07:49:41;98417.47;;;4.68
66170;BMP280;66757;44.024;20.456;2023-02-01T07:52:06;98424.63;;;4.12
66170;BMP280;66757;44.024;20.456;2023-02-01T07:54:32;98428.44;;;4.21
66170;BMP280;66757;44.024;20.456;2023-02-01T07:56:57;98424.88;;;4.76
66170;BMP280;66757;44.024;20.456;2023-02-01T07:59:23;98421.94;;;4.94
66170;BMP280;66757;44.024;20.456;2023-02-01T08:01:48;98430.59;;;4.68
66170;BMP280;66757;44.024;20.456;2023-02-01T08:04:14;98433.53;;;4.49
66170;BMP280;66757;44.024;20.456;2023-02-01T08:06:39;98429.31;;;4.97
66170;BMP280;66757;44.024;20.456;2023-02-01T08:09:06;98421.19;;;4.99
66170;BMP280;66757;44.024;20.456;2023-02-01T08:11:33;98420.41;;;5.25
66170;BMP280;66757;44.024;20.456;2023-02-01T08:13:59;98420.91;;;5.59
66170;BMP280;66757;44.024;20.456;2023-02-01T08:16:25;98422.91;;;5.74
66170;BMP280;66757;44.024;20.456;2023-02-01T08:18:51;98417.28;;;6.02
66170;BMP280;66757;44.024;20.456;2023-02-01T08:23:43;98424.25;;;6.34
66170;BMP280;66757;44.024;20.456;2023-02-01T08:28:35;98416.78;;;6.78
66170;BMP280;66757;44.024;20.456;2023-02-01T08:31:09;98394.06;;;6.62
66170;BMP280;66757;44.024;20.456;2023-02-01T08:33:35;98390.94;;;6.70
66170;BMP280;66757;44.024;20.456;2023-02-01T08:36:03;98385.41;;;6.86
66170;BMP280;66757;44.024;20.456;2023-02-01T08:38:29;98390.94;;;6.85
66170;BMP280;66757;44.024;20.456;2023-02-01T08:40:55;98374.38;;;7.00
66170;BMP280;66757;44.024;20.456;2023-02-01T08:43:20;98376.97;;;7.10
66170;BMP280;66757;44.024;20.456;2023-02-01T08:45:46;98373.84;;;7.43
66170;BMP280;66757;44.024;20.456;2023-02-01T08:48:11;98381.19;;;7.41
66170;BMP280;66757;44.024;20.456;2023-02-01T08:50:38;98388.03;;;7.68
66170;BMP280;66757;44.024;20.456;2023-02-01T08:53:03;98378.28;;;7.53
66170;BMP280;66757;44.024;20.456;2023-02-01T08:55:29;98379.03;;;7.89
66170;BMP280;66757;44.024;20.456;2023-02-01T08:57:54;98379.72;;;8.10
66170;BMP280;66757;44.024;20.456;2023-02-01T09:00:21;98390.03;;;8.06
66170;BMP280;66757;44.024;20.456;2023-02-01T09:02:46;98385.69;;;8.36
66170;BMP280;66757;44.024;20.456;2023-02-01T09:05:13;98386.81;;;8.14
66170;BMP280;66757;44.024;20.456;2023-02-01T09:07:39;98388.50;;;7.90
66170;BMP280;66757;44.024;20.456;2023-02-01T09:10:05;98390.03;;;8.11
66170;BMP280;66757;44.024;20.456;2023-02-01T09:12:32;98400.94;;;7.89
66170;BMP280;66757;44.024;20.456;2023-02-01T09:14:58;98405.13;;;7.90
66170;BMP280;66757;44.024;20.456;2023-02-01T09:17:28;98401.81;;;8.29
66170;BMP280;66757;44.024;20.456;2023-02-01T09:19:54;98397.31;;;8.30
66170;BMP280;66757;44.024;20.456;2023-02-01T09:22:20;98391.72;;;8.41
66170;BMP280;66757;44.024;20.456;2023-02-01T09:24:45;98398.56;;;8.47
66170;BMP280;66757;44.024;20.456;2023-02-01T09:27:11;98391.75;;;8.36
66170;BMP280;66757;44.024;20.456;2023-02-01T09:29:36;98387.53;;;8.35
66170;BMP280;66757;44.024;20.456;2023-02-01T09:32:03;98395.56;;;8.64
66170;BMP280;66757;44.024;20.456;2023-02-01T09:34:29;98394.19;;;9.11
66170;BMP280;66757;44.024;20.456;2023-02-01T09:36:55;98392.88;;;9.03
66170;BMP280;66757;44.024;20.456;2023-02-01T09:39:20;98396.25;;;9.14
66170;BMP280;66757;44.024;20.456;2023-02-01T09:44:54;98393.88;;;9.70
66170;BMP280;66757;44.024;20.456;2023-02-01T09:47:23;98391.38;;;9.79
66170;BMP280;66757;44.024;20.456;2023-02-01T09:50:00;98382.44;;;10.17
66170;BMP280;66757;44.024;20.456;2023-02-01T09:52:43;98377.22;;;10.12
66170;BMP280;66757;44.024;20.456;2023-02-01T09:55:18;98366.53;;;10.55
66170;BMP280;66757;44.024;20.456;2023-02-01T09:57:51;98366.81;;;10.53
66170;BMP280;66757;44.024;20.456;2023-02-01T10:00:25;98363.88;;;10.55
66170;BMP280;66757;44.024;20.456;2023-02-01T10:02:54;98356.72;;;10.55
66170;BMP280;66757;44.024;20.456;2023-02-01T10:08:16;98355.88;;;10.92
66170;BMP280;66757;44.024;20.456;2023-02-01T10:10:48;98354.94;;;10.32
66170;BMP280;66757;44.024;20.456;2023-02-01T10:16:25;98336.13;;;10.98
66170;BMP280;66757;44.024;20.456;2023-02-01T10:24:46;98329.47;;;11.69
66170;BMP280;66757;44.024;20.456;2023-02-01T10:27:21;98315.59;;;11.59
66170;BMP280;66757;44.024;20.456;2023-02-01T10:29:52;98313.19;;;11.85
66170;BMP280;66757;44.024;20.456;2023-02-01T10:32:27;98304.06;;;11.91
66170;BMP280;66757;44.024;20.456;2023-02-01T10:34:58;98301.28;;;11.96
66170;BMP280;66757;44.024;20.456;2023-02-01T10:39:56;98304.53;;;12.15
66170;BMP280;66757;44.024;20.456;2023-02-01T10:42:26;98308.50;;;11.82
66170;BMP280;66757;44.024;20.456;2023-02-01T10:44:55;98309.19;;;11.74
66170;BMP280;66757;44.024;20.456;2023-02-01T10:47:21;98310.13;;;12.05
66170;BMP280;66757;44.024;20.456;2023-02-01T10:58:29;98282.34;;;12.33
66170;BMP280;66757;44.024;20.456;2023-02-01T11:00:59;98276.91;;;12.38
66170;BMP280;66757;44.024;20.456;2023-02-01T11:06:41;98263.53;;;12.92
66170;BMP280;66757;44.024;20.456;2023-02-01T11:11:33;98269.25;;;13.16
66170;BMP280;66757;44.024;20.456;2023-02-01T11:14:32;98266.34;;;12.56
66170;BMP280;66757;44.024;20.456;2023-02-01T11:17:01;98259.81;;;13.01
66170;BMP280;66757;44.024;20.456;2023-02-01T11:19:28;98254.47;;;13.41
66170;BMP280;66757;44.024;20.456;2023-02-01T11:21:56;98256.59;;;13.30
66170;BMP280;66757;44.024;20.456;2023-02-01T11:24:32;98257.75;;;14.07
66170;BMP280;66757;44.024;20.456;2023-02-01T11:27:03;98254.91;;;13.34
66170;BMP280;66757;44.024;20.456;2023-02-01T11:29:39;98256.81;;;14.03
66170;BMP280;66757;44.024;20.456;2023-02-01T11:32:08;98256.09;;;14.49
66170;BMP280;66757;44.024;20.456;2023-02-01T11:34:41;98257.19;;;14.48
66170;BMP280;66757;44.024;20.456;2023-02-01T11:37:21;98262.56;;;13.36
66170;BMP280;66757;44.024;20.456;2023-02-01T11:39:56;98269.03;;;14.21
66170;BMP280;66757;44.024;20.456;2023-02-01T11:42:22;98262.41;;;15.83
66170;BMP280;66757;44.024;20.456;2023-02-01T11:44:48;98267.34;;;15.93
66170;BMP280;66757;44.024;20.456;2023-02-01T11:47:28;98255.91;;;17.78
66170;BMP280;66757;44.024;20.456;2023-02-01T11:50:01;98260.41;;;18.33
66170;BMP280;66757;44.024;20.456;2023-02-01T11:58:20;98253.13;;;18.34
66170;BMP280;66757;44.024;20.456;2023-02-01T12:03:37;98241.56;;;19.15
66170;BMP280;66757;44.024;20.456;2023-02-01T12:17:12;98205.31;;;22.68
66170;BMP280;66757;44.024;20.456;2023-02-01T12:25:53;98196.41;;;22.05
66170;BMP280;66757;44.024;20.456;2023-02-01T12:41:56;98175.28;;;15.40
66170;BMP280;66757;44.024;20.456;2023-02-01T12:44:46;98185.72;;;15.12
66170;BMP280;66757;44.024;20.456;2023-02-01T12:47:20;98182.41;;;14.18
66170;BMP280;66757;44.024;20.456;2023-02-01T12:50:06;98183.53;;;14.09
66170;BMP280;66757;44.024;20.456;2023-02-01T12:52:49;98181.41;;;14.99
66170;BMP280;66757;44.024;20.456;2023-02-01T12:55:22;98180.00;;;14.72
66170;BMP280;66757;44.024;20.456;2023-02-01T12:57:58;98175.25;;;14.48
66170;BMP280;66757;44.024;20.456;2023-02-01T13:00:47;98175.78;;;14.24
66170;BMP280;66757;44.024;20.456;2023-02-01T13:03:34;98176.38;;;13.66
66170;BMP280;66757;44.024;20.456;2023-02-01T13:06:06;98174.19;;;13.68
66170;BMP280;66757;44.024;20.456;2023-02-01T13:08:57;98171.97;;;13.19
66170;BMP280;66757;44.024;20.456;2023-02-01T13:11:30;98169.03;;;13.37
66170;BMP280;66757;44.024;20.456;2023-02-01T13:16:45;98153.31;;;13.01
66170;BMP280;66757;44.024;20.456;2023-02-01T13:19:23;98155.34;;;13.04
66170;BMP280;66757;44.024;20.456;2023-02-01T13:21:55;98146.59;;;12.95
66170;BMP280;66757;44.024;20.456;2023-02-01T13:24:32;98147.25;;;12.61
66170;BMP280;66757;44.024;20.456;2023-02-01T13:27:01;98138.56;;;12.38
66170;BMP280;66757;44.024;20.456;2023-02-01T13:29:28;98134.81;;;12.39
66170;BMP280;66757;44.024;20.456;2023-02-01T13:32:27;98134.13;;;12.65
66170;BMP280;66757;44.024;20.456;2023-02-01T13:40:36;98123.34;;;12.70
66170;BMP280;66757;44.024;20.456;2023-02-01T13:43:35;98117.72;;;12.71
66170;BMP280;66757;44.024;20.456;2023-02-01T13:46:08;98110.50;;;12.72
66170;BMP280;66757;44.024;20.456;2023-02-01T13:48:40;98108.47;;;12.77
66170;BMP280;66757;44.024;20.456;2023-02-01T13:51:07;98115.47;;;12.17
66170;BMP280;66757;44.024;20.456;2023-02-01T13:53:37;98111.63;;;12.00
66170;BMP280;66757;44.024;20.456;2023-02-01T13:56:15;98113.28;;;11.88
66170;BMP280;66757;44.024;20.456;2023-02-01T13:58:43;98113.72;;;11.81
66170;BMP280;66757;44.024;20.456;2023-02-01T14:06:56;98106.53;;;11.82
66170;BMP280;66757;44.024;20.456;2023-02-01T14:09:34;98105.59;;;11.86
66170;BMP280;66757;44.024;20.456;2023-02-01T14:13:12;98112.38;;;11.70
66170;BMP280;66757;44.024;20.456;2023-02-01T14:15:27;98120.59;;;11.82
66170;BMP280;66757;44.024;20.456;2023-02-01T14:17:54;98117.00;;;11.42
66170;BMP280;66757;44.024;20.456;2023-02-01T14:23:08;98116.00;;;11.52
66170;BMP280;66757;44.024;20.456;2023-02-01T14:25:37;98118.97;;;11.73
66170;BMP280;66757;44.024;20.456;2023-02-01T14:28:11;98100.22;;;11.33
66170;BMP280;66757;44.024;20.456;2023-02-01T14:30:37;98109.69;;;11.61
66170;BMP280;66757;44.024;20.456;2023-02-01T14:33:25;98095.34;;;11.49
66170;BMP280;66757;44.024;20.456;2023-02-01T14:36:06;98087.84;;;10.92
66170;BMP280;66757;44.024;20.456;2023-02-01T14:38:33;98078.44;;;10.73
66170;BMP280;66757;44.024;20.456;2023-02-01T14:41:28;98077.69;;;10.58
66170;BMP280;66757;44.024;20.456;2023-02-01T14:49:30;98061.25;;;10.70
66170;BMP280;66757;44.024;20.456;2023-02-01T14:51:57;98060.53;;;10.78
66170;BMP280;66757;44.024;20.456;2023-02-01T14:54:23;98049.75;;;10.61
66170;BMP280;66757;44.024;20.456;2023-02-01T14:56:49;98052.44;;;10.34
66170;BMP280;66757;44.024;20.456;2023-02-01T14:59:17;98050.38;;;10.58
66170;BMP280;66757;44.024;20.456;2023-02-01T15:01:52;98046.91;;;10.71
66170;BMP280;66757;44.024;20.456;2023-02-01T15:04:20;98045.84;;;10.72
66170;BMP280;66757;44.024;20.456;2023-02-01T15:07:05;98047.44;;;10.59
66170;BMP280;66757;44.024;20.456;2023-02-01T15:09:38;98043.78;;;10.69
66170;BMP280;66757;44.024;20.456;2023-02-01T15:14:48;98040.72;;;10.21
66170;BMP280;66757;44.024;20.456;2023-02-01T15:17:27;98020.50;;;10.39
66170;BMP280;66757;44.024;20.456;2023-02-01T15:20:00;98020.13;;;10.59
66170;BMP280;66757;44.024;20.456;2023-02-01T15:22:28;98017.84;;;10.25
66170;BMP280;66757;44.024;20.456;2023-02-01T15:24:55;98030.84;;;10.26
66170;BMP280;66757;44.024;20.456;2023-02-01T15:27:21;98020.91;;;10.32
66170;BMP280;66757;44.024;20.456;2023-02-01T15:29:47;98018.25;;;10.32
66170;BMP280;66757;44.024;20.456;2023-02-01T15:32:33;98021.06;;;9.94
66170;BMP280;66757;44.024;20.456;2023-02-01T15:35:00;98011.47;;;10.12
66170;BMP280;66757;44.024;20.456;2023-02-01T15:37:26;98018.25;;;10.32
66170;BMP280;66757;44.024;20.456;2023-02-01T15:42:58;98024.25;;;9.97
66170;BMP280;66757;44.024;20.456;2023-02-01T15:45:28;98027.66;;;9.97
66170;BMP280;66757;44.024;20.456;2023-02-01T15:47:56;98022.91;;;10.26
66170;BMP280;66757;44.024;20.456;2023-02-01T15:50:22;98016.69;;;10.17
66170;BMP280;66757;44.024;20.456;2023-02-01T15:52:51;98008.75;;;10.17
66170;BMP280;66757;44.024;20.456;2023-02-01T15:55:38;98016.88;;;9.61
66170;BMP280;66757;44.024;20.456;2023-02-01T15:58:06;98012.22;;;9.85
66170;BMP280;66757;44.024;20.456;2023-02-01T16:00:43;98015.38;;;9.87
66170;BMP280;66757;44.024;20.456;2023-02-01T16:05:59;98030.84;;;9.67
66170;BMP280;66757;44.024;20.456;2023-02-01T16:08:27;98027.75;;;9.59
66170;BMP280;66757;44.024;20.456;2023-02-01T16:10:59;98022.56;;;9.54
66170;BMP280;66757;44.024;20.456;2023-02-01T16:13:26;98035.03;;;10.00
66170;BMP280;66757;44.024;20.456;2023-02-01T16:15:51;98038.53;;;9.95
66170;BMP280;66757;44.024;20.456;2023-02-01T16:18:16;98044.13;;;9.94
66170;BMP280;66757;44.024;20.456;2023-02-01T16:20:42;98046.66;;;9.85
66170;BMP280;66757;44.024;20.456;2023-02-01T16:23:09;98040.03;;;10.02
66170;BMP280;66757;44.024;20.456;2023-02-01T16:25:35;98041.72;;;10.11
66170;BMP280;66757;44.024;20.456;2023-02-01T16:28:01;98051.44;;;10.16
66170;BMP280;66757;44.024;20.456;2023-02-01T16:30:27;98040.63;;;9.99
66170;BMP280;66757;44.024;20.456;2023-02-01T16:32:58;98046.19;;;9.83
66170;BMP280;66757;44.024;20.456;2023-02-01T16:35:29;98048.59;;;9.66
66170;BMP280;66757;44.024;20.456;2023-02-01T16:37:58;98042.41;;;9.71
66170;BMP280;66757;44.024;20.456;2023-02-01T16:40:24;98041.00;;;9.59
66170;BMP280;66757;44.024;20.456;2023-02-01T16:42:51;98035.94;;;9.77
66170;BMP280;66757;44.024;20.456;2023-02-01T16:45:17;98036.69;;;9.64
66170;BMP280;66757;44.024;20.456;2023-02-01T16:47:48;98041.16;;;9.49
66170;BMP280;66757;44.024;20.456;2023-02-01T16:50:22;98050.00;;;9.26